createdAt,value
2018-10-18T00:01:49.843Z,101524.95
2018-10-18T00:06:42.388Z,101527.36
2018-10-18T00:11:35.013Z,101525.06
2018-10-18T00:16:27.897Z,101520.86
2018-10-18T00:21:20.513Z,101520.56
2018-10-18T00:26:13.247Z,101516.23
2018-10-18T00:31:05.851Z,101520.70
2018-10-18T00:35:58.497Z,101526.48
2018-10-18T00:40:51.069Z,101521.40
2018-10-18T00:45:43.895Z,101522.63
2018-10-18T00:50:36.558Z,101528.48
2018-10-18T00:55:29.173Z,101520.81
2018-10-18T01:00:21.787Z,101520.91
2018-10-18T01:05:14.527Z,101521.16
2018-10-18T01:10:07.150Z,101515.15
2018-10-18T01:14:59.804Z,101528.80
2018-10-18T01:19:52.649Z,101517.69
2018-10-18T01:24:45.283Z,101516.20
2018-10-18T01:29:37.981Z,101510.00
2018-10-18T01:34:30.612Z,101512.13
2018-10-18T01:39:23.281Z,101511.60
2018-10-18T01:44:15.994Z,101516.31
2018-10-18T01:49:08.650Z,101504.81
2018-10-18T01:54:01.277Z,101503.55
2018-10-18T01:58:53.883Z,101501.89
2018-10-18T02:03:46.547Z,101504.30
2018-10-18T02:08:39.174Z,101509.61
2018-10-18T02:13:31.823Z,101503.55
2018-10-18T02:18:24.493Z,101504.51
2018-10-18T02:23:17.092Z,101506.30
2018-10-18T02:28:09.723Z,101503.38
2018-10-18T02:33:02.343Z,101506.98
2018-10-18T02:37:54.970Z,101497.58
2018-10-18T02:42:47.606Z,101500.88
2018-10-18T02:47:40.204Z,101504.25
2018-10-18T02:52:32.805Z,101501.37
2018-10-18T02:57:25.480Z,101493.11
2018-10-18T03:02:18.142Z,101498.97
2018-10-18T03:07:10.807Z,101499.40
2018-10-18T03:12:03.841Z,101497.34
2018-10-18T03:16:56.398Z,101507.99
2018-10-18T03:21:49.055Z,101503.70
2018-10-18T03:26:41.718Z,101516.28
2018-10-18T03:31:34.380Z,101511.46
2018-10-18T03:36:27.056Z,101509.19
2018-10-18T03:41:19.738Z,101509.62
2018-10-18T03:46:12.417Z,101516.27
2018-10-18T03:51:05.170Z,101521.60
2018-10-18T03:55:57.741Z,101512.49
2018-10-18T04:00:50.379Z,101509.91
2018-10-18T04:05:43.065Z,101505.07
2018-10-18T04:10:35.856Z,101502.28
2018-10-18T04:15:28.482Z,101501.35
2018-10-18T04:20:21.098Z,101503.84
2018-10-18T04:25:13.775Z,101503.63
2018-10-18T04:30:06.918Z,101503.84
2018-10-18T04:34:59.457Z,101506.75
2018-10-18T04:39:52.101Z,101512.66
2018-10-18T04:44:44.870Z,101505.61
2018-10-18T04:49:37.687Z,101513.85
2018-10-18T04:54:30.346Z,101522.02
2018-10-18T04:59:22.960Z,101520.37
2018-10-18T05:04:16.568Z,101524.25
2018-10-18T05:09:09.408Z,101524.77
2018-10-18T05:14:01.993Z,101533.59
2018-10-18T05:18:54.648Z,101538.57
2018-10-18T05:23:47.435Z,101535.47
2018-10-18T05:28:40.155Z,101543.34
2018-10-18T05:33:32.857Z,101549.19
2018-10-18T05:38:25.630Z,101555.20
2018-10-18T05:43:18.357Z,101562.46
2018-10-18T05:48:10.956Z,101573.97
2018-10-18T05:53:03.660Z,101585.62
2018-10-18T05:57:56.350Z,101588.42
2018-10-18T06:02:49.786Z,101589.05
2018-10-18T06:07:42.977Z,101600.86
2018-10-18T06:12:35.623Z,101603.45
2018-10-18T06:17:28.338Z,101602.69
2018-10-18T06:27:24.909Z,101609.02
2018-10-18T06:32:17.623Z,101605.97
2018-10-18T06:37:10.277Z,101601.68
2018-10-18T06:42:02.881Z,101598.17
2018-10-18T06:46:55.571Z,101606.33
2018-10-18T06:51:48.328Z,101605.03
2018-10-18T06:56:40.941Z,101597.49
2018-10-18T07:01:33.510Z,101599.45
2018-10-18T07:06:26.136Z,101605.29
2018-10-18T07:11:18.729Z,101602.41
2018-10-18T07:16:11.433Z,101616.19
2018-10-18T07:21:04.658Z,101620.23
2018-10-18T07:25:57.275Z,101619.44
2018-10-18T07:30:50.008Z,101618.56
2018-10-18T07:35:42.650Z,101626.89
2018-10-18T07:40:35.243Z,101626.50
2018-10-18T07:45:27.867Z,101633.03
2018-10-18T07:50:20.458Z,101641.07
2018-10-18T07:55:13.074Z,101630.95
2018-10-18T08:00:08.760Z,101637.24
2018-10-18T08:05:01.275Z,101647.79
2018-10-18T08:09:53.937Z,101645.21
2018-10-18T08:14:46.522Z,101641.22
2018-10-18T08:19:39.154Z,101634.38
2018-10-18T08:24:31.846Z,101635.23
2018-10-18T08:29:24.498Z,101632.04
2018-10-18T08:34:17.123Z,101632.19
2018-10-18T08:39:10.502Z,101630.02
2018-10-18T08:44:03.350Z,101632.98
2018-10-18T08:48:55.977Z,101635.04
2018-10-18T08:53:48.634Z,101628.71
2018-10-18T08:58:41.234Z,101619.27
2018-10-18T09:03:33.880Z,101625.88
2018-10-18T09:08:26.529Z,101628.55
2018-10-18T09:13:19.275Z,101637.13
2018-10-18T09:18:11.829Z,101634.11
2018-10-18T09:23:05.048Z,101642.65
2018-10-18T09:27:57.706Z,101634.59
2018-10-18T09:32:50.262Z,101639.31
2018-10-18T09:37:42.886Z,101633.92
2018-10-18T09:42:35.454Z,101639.19
2018-10-18T09:47:28.098Z,101635.44
2018-10-18T09:52:20.721Z,101637.61
2018-10-18T09:57:13.362Z,101634.59
2018-10-18T10:02:11.797Z,101641.38
2018-10-18T10:07:04.736Z,101640.73
2018-10-18T10:11:57.313Z,101640.08
2018-10-18T10:16:49.894Z,101644.25
2018-10-18T10:21:42.541Z,101645.07
2018-10-18T10:26:35.086Z,101647.56
2018-10-18T10:31:28.003Z,101658.05
2018-10-18T10:36:20.617Z,101661.23
2018-10-18T10:41:13.228Z,101674.89
2018-10-18T10:46:05.831Z,101679.70
2018-10-18T10:50:58.482Z,101689.20
2018-10-18T10:55:51.294Z,101694.36
2018-10-18T11:01:22.475Z,101692.92
2018-10-18T11:06:15.216Z,101689.29
2018-10-18T11:11:08.053Z,101684.89
2018-10-18T11:16:01.654Z,101683.18
2018-10-18T11:20:54.266Z,101688.33
2018-10-18T11:25:46.850Z,101687.41
2018-10-18T11:30:39.449Z,101687.03
2018-10-18T11:35:32.020Z,101682.62
2018-10-18T11:40:24.671Z,101684.72
2018-10-18T11:45:17.348Z,101679.52
2018-10-18T11:50:10.027Z,101671.72
2018-10-18T11:55:02.673Z,101665.25
2018-10-18T11:59:55.321Z,101661.59
2018-10-18T12:04:47.925Z,101645.36
2018-10-18T12:09:40.676Z,101652.79
2018-10-18T12:14:33.262Z,101662.69
2018-10-18T12:19:25.890Z,101670.64
2018-10-18T12:24:18.478Z,101676.08
2018-10-18T12:29:11.258Z,101675.44
2018-10-18T12:34:04.156Z,101676.73
2018-10-18T12:38:56.713Z,101677.78
2018-10-18T12:43:49.287Z,101676.08
2018-10-18T12:48:42.106Z,101684.20
2018-10-18T12:53:34.742Z,101690.68
2018-10-18T12:58:27.422Z,101681.84
2018-10-18T13:03:20.069Z,101687.73
2018-10-18T13:08:12.811Z,101685.80
2018-10-18T13:13:05.397Z,101696.09
2018-10-18T13:17:58.169Z,101696.31
2018-10-18T13:22:51.027Z,101700.61
2018-10-18T13:27:43.757Z,101706.56
2018-10-18T13:32:36.463Z,101706.52
2018-10-18T13:37:29.246Z,101698.31
2018-10-18T13:42:21.934Z,101692.03
2018-10-18T13:47:14.902Z,101694.47
2018-10-18T13:52:07.562Z,101696.34
2018-10-18T13:57:00.158Z,101694.11
2018-10-18T14:01:52.818Z,101695.47
2018-10-18T14:06:45.624Z,101699.27
2018-10-18T14:11:38.343Z,101698.94
2018-10-18T14:16:30.953Z,101701.88
2018-10-18T14:21:23.656Z,101697.74
2018-10-18T14:26:16.684Z,101701.47
2018-10-18T14:31:09.218Z,101707.15
2018-10-18T14:36:01.846Z,101703.81
2018-10-18T14:40:54.592Z,101706.19
2018-10-18T14:45:47.439Z,101703.97
2018-10-18T14:50:40.195Z,101699.83
2018-10-18T14:55:33.081Z,101704.70
2018-10-18T15:00:25.888Z,101702.22
2018-10-18T15:05:18.633Z,101706.26
2018-10-18T15:10:12.309Z,101705.68
2018-10-18T15:15:06.571Z,101707.28
2018-10-18T15:19:59.165Z,101706.71
2018-10-18T15:24:51.757Z,101710.50
2018-10-18T15:29:44.434Z,101709.09
2018-10-18T15:34:37.113Z,101713.42
2018-10-18T15:39:29.807Z,101718.83
2018-10-18T15:44:22.693Z,101726.16
2018-10-18T15:49:15.181Z,101723.14
2018-10-18T15:54:07.877Z,101723.62
2018-10-18T15:59:00.462Z,101721.98
2018-10-18T16:03:53.055Z,101729.56
2018-10-18T16:08:45.625Z,101730.62
2018-10-18T16:13:38.313Z,101730.34
2018-10-18T16:18:30.848Z,101734.65
2018-10-18T16:23:23.500Z,101741.41
2018-10-18T16:28:16.084Z,101752.82
2018-10-18T16:33:08.934Z,101748.69
2018-10-18T16:38:01.530Z,101758.44
2018-10-18T16:42:54.098Z,101766.50
2018-10-18T16:47:46.725Z,101777.02
2018-10-18T16:52:39.633Z,101786.98
2018-10-18T16:57:32.496Z,101787.97
2018-10-18T17:02:25.015Z,101799.27
2018-10-18T17:07:17.598Z,101796.80
2018-10-18T17:12:10.372Z,101803.22
2018-10-18T17:17:02.995Z,101811.30
2018-10-18T17:21:55.508Z,101810.89
2018-10-18T17:26:48.139Z,101818.67
2018-10-18T17:31:40.637Z,101823.70
2018-10-18T17:36:33.194Z,101835.05
2018-10-18T17:41:26.110Z,101836.61
2018-10-18T17:46:18.776Z,101829.38
2018-10-18T17:51:11.454Z,101827.69
2018-10-18T17:56:04.527Z,101838.50
2018-10-18T18:00:57.142Z,101845.47
2018-10-18T18:05:50.402Z,101852.49
2018-10-18T18:10:43.173Z,101855.71
2018-10-18T18:15:35.760Z,101863.03
2018-10-18T18:20:28.401Z,101860.78
2018-10-18T18:25:20.976Z,101865.62
2018-10-18T18:30:14.641Z,101874.01
2018-10-18T18:35:07.475Z,101876.16
2018-10-18T18:40:00.130Z,101875.50
2018-10-18T18:44:58.515Z,101890.08
2018-10-18T18:49:51.247Z,101891.11
2018-10-18T18:54:44.017Z,101898.06
2018-10-18T18:59:36.609Z,101909.09
2018-10-18T19:04:29.212Z,101913.36
2018-10-18T19:09:21.881Z,101920.08
2018-10-18T19:14:14.606Z,101922.20
2018-10-18T19:19:07.277Z,101920.20
2018-10-18T19:23:59.968Z,101925.50
2018-10-18T19:28:52.579Z,101927.05
2018-10-18T19:33:45.341Z,101929.92
2018-10-18T19:38:38.148Z,101938.97
2018-10-18T19:43:30.763Z,101931.92
2018-10-18T19:48:23.450Z,101941.64
2018-10-18T19:53:17.247Z,101941.87
2018-10-18T19:58:10.328Z,101941.58
2018-10-18T20:03:03.079Z,101944.75
2018-10-18T20:07:55.847Z,101945.80
2018-10-18T20:12:48.489Z,101942.74
2018-10-18T20:17:41.197Z,101948.92
2018-10-18T20:22:33.748Z,101945.08
2018-10-18T20:27:26.654Z,101949.30
2018-10-18T20:32:19.434Z,101953.33
2018-10-18T20:37:12.067Z,101953.25
2018-10-18T20:42:05.048Z,101959.93
2018-10-18T20:46:57.982Z,101961.74
2018-10-18T20:51:50.484Z,101960.03
2018-10-18T20:56:43.097Z,101967.05
2018-10-18T21:01:35.727Z,101970.73
2018-10-18T21:06:28.641Z,101976.38
2018-10-18T21:11:21.216Z,101982.34
2018-10-18T21:16:13.817Z,101988.52
2018-10-18T21:21:06.479Z,101988.16
2018-10-18T21:25:59.265Z,101980.70
2018-10-18T21:30:51.869Z,101977.55
2018-10-18T21:35:44.466Z,101988.24
2018-10-18T21:40:37.080Z,101993.06
2018-10-18T21:45:29.845Z,101994.59
2018-10-18T21:50:22.502Z,101988.78
2018-10-18T21:55:15.130Z,101989.75
2018-10-18T22:00:13.999Z,102001.29
2018-10-18T22:05:06.720Z,102005.49
2018-10-18T22:09:59.309Z,102006.94
2018-10-18T22:14:51.963Z,102011.88
2018-10-18T22:19:44.766Z,102016.11
2018-10-18T22:24:37.413Z,102015.72
2018-10-18T22:29:30.035Z,102015.33
2018-10-18T22:34:22.718Z,102005.48
2018-10-18T22:39:15.278Z,102002.60
2018-10-18T22:44:08.439Z,102006.61
2018-10-18T22:49:01.080Z,102011.33
2018-10-18T22:53:53.693Z,102016.34
2018-10-18T22:58:46.380Z,102023.28
2018-10-18T23:03:39.014Z,102021.23
2018-10-18T23:08:31.732Z,102025.63
2018-10-18T23:13:24.507Z,102016.59
2018-10-18T23:18:17.159Z,102021.08
2018-10-18T23:23:10.570Z,102030.56
2018-10-18T23:28:03.237Z,102028.22
2018-10-18T23:32:55.886Z,102035.64
2018-10-18T23:37:48.537Z,102028.99
2018-10-18T23:42:41.171Z,102030.19
2018-10-18T23:47:33.758Z,102022.92
2018-10-18T23:52:26.351Z,102031.62
2018-10-18T23:57:19.026Z,102031.47
